Time;durP1;ratioP1;P1;durP2;ratioP2;P2;SDS_P1;SDS_P2;PMS_P1;PMS_P2;Temp;Humidity;BMP_temperature;BMP_pressure;BME280_temperature;BME280_humidity;BME280_pressure;Samples;Min_cycle;Max_cycle;Signal;HPM_P1;HPM_P2
2023/08/27 00:02:23;;;;;;;15.27;13.63;;;22.00;89.80;;;;;;6163610;28;20203;-66
2023/08/27 00:05:24;;;;;;;14.63;13.23;;;22.00;89.60;;;;;;6172913;28;20188;-65
2023/08/27 00:08:25;;;;;;;15.07;13.67;;;22.00;89.60;;;;;;6168638;28;20355;-65
2023/08/27 00:11:25;;;;;;;15.07;13.53;;;22.00;89.50;;;;;;6163070;28;20199;-66
2023/08/27 00:14:27;;;;;;;13.87;12.57;;;22.00;89.70;;;;;;6170028;28;20188;-66
2023/08/27 00:17:28;;;;;;;16.17;13.43;;;22.00;89.30;;;;;;6162355;28;20333;-66
2023/08/27 00:20:33;;;;;;;14.07;12.47;;;21.90;89.40;;;;;;6163142;28;20193;-66
2023/08/27 00:23:33;;;;;;;16.30;13.90;;;21.90;89.40;;;;;;6165621;28;20193;-66
2023/08/27 00:26:34;;;;;;;17.90;13.63;;;21.90;89.30;;;;;;6155877;28;20198;-65
2023/08/27 00:29:34;;;;;;;15.10;13.70;;;21.90;90.30;;;;;;6162883;28;20868;-65
2023/08/27 00:32:35;;;;;;;14.37;12.97;;;21.90;89.60;;;;;;6184631;28;20267;-65
2023/08/27 00:35:37;;;;;;;14.97;13.37;;;21.90;90.00;;;;;;6135438;28;20267;-65
2023/08/27 00:38:37;;;;;;;14.83;13.00;;;21.90;90.20;;;;;;6178583;28;20193;-66
2023/08/27 00:41:38;;;;;;;15.30;13.10;;;21.80;89.70;;;;;;6175270;28;20193;-65
2023/08/27 00:44:38;;;;;;;14.23;12.90;;;21.80;89.80;;;;;;6163069;28;20199;-65
2023/08/27 00:47:39;;;;;;;14.10;12.60;;;21.70;90.10;;;;;;6162185;28;20192;-65
2023/08/27 00:50:40;;;;;;;13.90;12.50;;;21.70;89.90;;;;;;6161519;28;20205;-65
2023/08/27 00:53:41;;;;;;;14.67;12.97;;;21.70;89.90;;;;;;6176217;28;20199;-65
2023/08/27 00:56:44;;;;;;;14.23;12.83;;;21.70;89.70;;;;;;6162404;28;20235;-65
2023/08/27 00:59:46;;;;;;;14.60;13.27;;;21.70;89.70;;;;;;6177569;28;20184;-65
2023/08/27 01:02:48;;;;;;;14.90;13.40;;;21.70;89.40;;;;;;6158720;28;20191;-65
2023/08/27 01:05:48;;;;;;;14.67;13.20;;;21.70;90.30;;;;;;6163312;28;20287;-65
2023/08/27 01:09:03;;;;;;;15.40;13.87;;;21.70;90.00;;;;;;6158818;28;20259;-66
2023/08/27 01:12:29;;;;;;;15.37;13.87;;;21.70;90.20;;;;;;6176263;28;20272;-66
2023/08/27 01:15:32;;;;;;;14.33;13.03;;;21.60;90.00;;;;;;6191581;28;20216;-66
2023/08/27 01:18:34;;;;;;;14.83;12.60;;;21.60;89.90;;;;;;6162837;28;20227;-65
2023/08/27 01:21:35;;;;;;;14.50;12.97;;;21.50;90.00;;;;;;6155321;28;20185;-65
2023/08/27 01:24:36;;;;;;;13.70;12.23;;;21.50;90.00;;;;;;6135161;28;20204;-65
2023/08/27 01:28:04;;;;;;;14.77;12.70;;;21.50;89.90;;;;;;6146130;28;20192;-65
2023/08/27 01:31:20;;;;;;;14.60;13.20;;;21.50;89.60;;;;;;6172618;28;20204;-66
2023/08/27 01:34:22;;;;;;;14.57;13.03;;;21.50;89.80;;;;;;6176173;28;20192;-66
2023/08/27 01:37:22;;;;;;;15.87;13.13;;;21.50;90.20;;;;;;6176583;28;20223;-66
2023/08/27 01:40:25;;;;;;;14.23;12.77;;;21.50;90.40;;;;;;6161035;28;20185;-66
2023/08/27 01:43:25;;;;;;;13.50;12.20;;;21.40;90.20;;;;;;6190616;28;20200;-66
2023/08/27 01:46:26;;;;;;;13.20;11.97;;;21.40;90.00;;;;;;6166020;28;20185;-66
2023/08/27 01:49:27;;;;;;;14.20;12.80;;;21.40;90.10;;;;;;6159650;28;20188;-66
2023/08/27 01:52:27;;;;;;;13.97;12.67;;;21.40;90.00;;;;;;6176495;28;20188;-66
2023/08/27 01:55:28;;;;;;;13.57;12.30;;;21.40;90.00;;;;;;6145607;28;20196;-64
2023/08/27 01:58:29;;;;;;;12.80;11.63;;;21.30;89.80;;;;;;6144873;28;20219;-64
2023/08/27 02:01:30;;;;;;;12.53;11.30;;;21.30;89.60;;;;;;6143778;28;20196;-64
2023/08/27 02:04:30;;;;;;;13.27;11.83;;;21.30;89.40;;;;;;6173563;28;20192;-64
2023/08/27 02:07:36;;;;;;;16.53;11.93;;;21.30;89.30;;;;;;6173533;28;20259;-66
2023/08/27 02:10:37;;;;;;;11.70;10.60;;;21.30;89.70;;;;;;6190204;28;20192;-66
2023/08/27 02:13:37;;;;;;;12.03;11.00;;;21.30;89.60;;;;;;6158959;28;20189;-66
2023/08/27 02:16:38;;;;;;;13.10;10.90;;;21.20;89.20;;;;;;6140712;28;20212;-66
2023/08/27 02:19:39;;;;;;;13.07;11.53;;;21.20;89.20;;;;;;6153637;28;20188;-65
2023/08/27 02:22:40;;;;;;;13.30;10.50;;;21.10;89.20;;;;;;6159802;28;20243;-66
2023/08/27 02:25:41;;;;;;;12.23;10.97;;;21.10;88.90;;;;;;6160935;28;20277;-65
2023/08/27 02:28:42;;;;;;;11.30;10.20;;;21.10;88.70;;;;;;6158201;28;20201;-65
2023/08/27 02:31:43;;;;;;;12.00;10.53;;;21.10;88.70;;;;;;6162253;28;20281;-65
2023/08/27 02:34:43;;;;;;;13.57;10.37;;;21.10;89.00;;;;;;6151201;28;20187;-65
2023/08/27 02:37:44;;;;;;;15.20;10.80;;;21.00;88.60;;;;;;6165443;28;20253;-65
2023/08/27 02:40:45;;;;;;;12.73;10.90;;;21.00;88.90;;;;;;6168718;28;20196;-65
2023/08/27 02:43:45;;;;;;;11.40;10.40;;;21.00;88.70;;;;;;6160011;28;20199;-65
2023/08/27 02:46:46;;;;;;;11.83;10.67;;;21.00;88.60;;;;;;6165689;28;20204;-65
2023/08/27 02:49:47;;;;;;;12.07;10.83;;;21.00;88.10;;;;;;6163915;28;20199;-65
2023/08/27 02:52:47;;;;;;;11.70;10.57;;;20.90;88.60;;;;;;6151714;28;20192;-66
2023/08/27 02:55:48;;;;;;;11.20;10.07;;;20.90;88.90;;;;;;6168443;28;20421;-64
2023/08/27 02:58:52;;;;;;;12.30;11.00;;;20.90;88.70;;;;;;6151389;28;20211;-65
2023/08/27 03:01:53;;;;;;;12.73;11.23;;;20.90;88.50;;;;;;6157274;28;20189;-65
2023/08/27 03:04:53;;;;;;;11.80;10.57;;;20.90;88.80;;;;;;6152617;28;20197;-65
2023/08/27 03:07:54;;;;;;;13.83;11.50;;;20.90;88.60;;;;;;6141399;28;20239;-65
2023/08/27 03:10:55;;;;;;;13.47;10.50;;;20.80;89.00;;;;;;6153458;28;20213;-65
2023/08/27 03:13:56;;;;;;;12.37;11.13;;;20.90;89.10;;;;;;6175278;28;20219;-65
2023/08/27 03:16:56;;;;;;;12.40;11.07;;;20.90;89.00;;;;;;6163739;28;20229;-65
2023/08/27 03:19:57;;;;;;;12.47;10.50;;;20.80;89.50;;;;;;6153447;28;20192;-65
2023/08/27 03:22:58;;;;;;;13.03;10.47;;;20.80;88.90;;;;;;6169445;28;20199;-66
2023/08/27 03:25:58;;;;;;;12.33;11.07;;;20.80;89.30;;;;;;6137623;28;20202;-65
2023/08/27 03:28:59;;;;;;;12.47;11.10;;;20.80;89.80;;;;;;6130611;28;20255;-65
2023/08/27 03:32:00;;;;;;;12.27;10.00;;;20.80;89.00;;;;;;6170692;28;20192;-65
2023/08/27 03:35:01;;;;;;;12.33;11.17;;;20.80;89.50;;;;;;6173828;28;20192;-65
2023/08/27 03:38:01;;;;;;;10.77;9.70;;;20.80;89.50;;;;;;6138029;28;20262;-66
2023/08/27 03:41:02;;;;;;;10.87;9.63;;;20.80;88.90;;;;;;6159485;28;20207;-65
2023/08/27 03:44:03;;;;;;;12.03;9.63;;;20.80;88.50;;;;;;6164630;28;20192;-65
2023/08/27 03:47:04;;;;;;;12.20;9.43;;;20.80;88.40;;;;;;6157516;28;20195;-65
2023/08/27 03:50:05;;;;;;;11.17;10.07;;;20.80;87.90;;;;;;6174302;28;20199;-65
2023/08/27 03:53:06;;;;;;;10.57;9.40;;;20.80;88.00;;;;;;6164439;28;20192;-65
2023/08/27 03:56:07;;;;;;;8.80;7.23;;;20.70;87.60;;;;;;6163502;28;20247;-65
2023/08/27 03:59:07;;;;;;;8.73;7.57;;;20.70;87.70;;;;;;6158783;28;20188;-65
2023/08/27 04:02:08;;;;;;;10.70;9.37;;;20.70;87.20;;;;;;6155212;28;20217;-65
2023/08/27 04:05:09;;;;;;;9.67;8.77;;;20.70;87.50;;;;;;6161035;28;20278;-65
2023/08/27 04:08:10;;;;;;;14.00;9.40;;;20.60;88.10;;;;;;6149792;28;20248;-66
2023/08/27 04:11:11;;;;;;;11.37;9.03;;;20.60;87.80;;;;;;6142865;28;20196;-65
2023/08/27 04:14:12;;;;;;;10.13;9.17;;;20.60;87.60;;;;;;6158882;28;20200;-65
2023/08/27 04:17:13;;;;;;;10.30;8.90;;;20.60;87.80;;;;;;6178390;28;20236;-65
2023/08/27 04:20:14;;;;;;;10.13;9.17;;;20.60;87.80;;;;;;6158719;28;20185;-65
2023/08/27 04:23:14;;;;;;;9.90;9.00;;;20.60;88.50;;;;;;6157361;28;20201;-66
2023/08/27 04:26:15;;;;;;;10.23;8.70;;;20.60;88.40;;;;;;6141164;28;20192;-66
2023/08/27 04:29:16;;;;;;;9.47;8.50;;;20.60;88.30;;;;;;6161047;28;20194;-65
2023/08/27 04:32:16;;;;;;;10.20;8.20;;;20.60;88.10;;;;;;6145788;28;20200;-65
2023/08/27 04:35:17;;;;;;;8.27;7.47;;;20.50;88.00;;;;;;6172755;28;20283;-65
2023/08/27 04:38:18;;;;;;;8.70;7.90;;;20.60;88.00;;;;;;6147488;28;20251;-65
2023/08/27 04:41:19;;;;;;;8.60;7.80;;;20.60;88.40;;;;;;6166251;28;20194;-65
2023/08/27 04:44:19;;;;;;;10.13;8.20;;;20.60;88.20;;;;;;6164312;28;20194;-65
2023/08/27 04:47:20;;;;;;;8.80;7.97;;;20.60;88.20;;;;;;6170338;28;20193;-65
2023/08/27 04:50:21;;;;;;;9.43;8.43;;;20.60;88.00;;;;;;6158058;28;20197;-65
2023/08/27 04:53:21;;;;;;;10.27;8.37;;;20.60;87.80;;;;;;6172608;28;20196;-65
2023/08/27 04:56:22;;;;;;;9.27;8.30;;;20.70;88.00;;;;;;6154630;28;20242;-65
2023/08/27 04:59:24;;;;;;;9.90;9.00;;;20.70;87.90;;;;;;6164723;28;20184;-65
2023/08/27 05:02:25;;;;;;;9.17;8.37;;;20.70;88.30;;;;;;6166316;28;20191;-65
2023/08/27 05:05:25;;;;;;;9.03;8.13;;;20.70;88.50;;;;;;6165902;28;20213;-65
2023/08/27 05:08:26;;;;;;;9.60;8.63;;;20.80;88.60;;;;;;6176807;28;20244;-65
2023/08/27 05:11:27;;;;;;;10.13;9.10;;;20.80;88.90;;;;;;6175893;28;20192;-66
2023/08/27 05:14:28;;;;;;;10.37;8.97;;;20.90;89.20;;;;;;6167046;28;20196;-67
2023/08/27 05:17:28;;;;;;;10.17;9.10;;;21.00;89.40;;;;;;6170149;28;20240;-66
2023/08/27 05:20:29;;;;;;;11.03;8.67;;;21.00;89.00;;;;;;6161702;28;20192;-66
2023/08/27 05:23:30;;;;;;;8.90;8.10;;;21.10;89.30;;;;;;6163771;28;20187;-67
2023/08/27 05:26:31;;;;;;;9.97;9.07;;;21.10;89.10;;;;;;6160763;28;20191;-66
2023/08/27 05:29:31;;;;;;;9.03;8.07;;;21.10;89.20;;;;;;6151238;28;20204;-67
2023/08/27 05:32:32;;;;;;;8.43;7.53;;;21.20;88.90;;;;;;6166202;28;20221;-65
2023/08/27 05:35:33;;;;;;;8.63;7.73;;;21.30;88.60;;;;;;6162293;28;20188;-66
2023/08/27 05:38:34;;;;;;;8.20;7.50;;;21.30;87.80;;;;;;6147070;28;20243;-69
2023/08/27 05:41:35;;;;;;;7.73;7.03;;;21.30;88.20;;;;;;6142389;28;20194;-68
2023/08/27 05:44:35;;;;;;;7.70;6.90;;;21.30;86.80;;;;;;6157013;28;20204;-68
2023/08/27 05:47:36;;;;;;;7.13;6.43;;;21.40;87.10;;;;;;6162302;28;20291;-69
2023/08/27 05:50:37;;;;;;;6.90;6.20;;;21.40;86.90;;;;;;6163198;28;20192;-68
2023/08/27 05:53:38;;;;;;;6.60;6.00;;;21.40;87.00;;;;;;6145006;28;20191;-68
2023/08/27 05:56:38;;;;;;;6.70;6.10;;;21.40;86.50;;;;;;6161230;28;20219;-67
2023/08/27 05:59:39;;;;;;;6.60;6.00;;;21.50;86.20;;;;;;6172656;28;20189;-69
2023/08/27 06:02:40;;;;;;;9.43;6.30;;;21.40;86.10;;;;;;6167111;28;20184;-67
2023/08/27 06:05:40;;;;;;;6.70;5.70;;;21.40;86.10;;;;;;6144681;28;20202;-67
2023/08/27 06:08:41;;;;;;;7.50;5.63;;;21.50;86.00;;;;;;6144437;28;20236;-68
2023/08/27 06:11:42;;;;;;;6.97;5.90;;;21.50;86.10;;;;;;6161290;28;20198;-68
2023/08/27 06:14:42;;;;;;;5.43;4.93;;;21.50;85.70;;;;;;6159879;28;20188;-68
2023/08/27 06:17:43;;;;;;;5.97;5.47;;;;;;;;;;6167283;28;20224;-68
2023/08/27 06:20:44;;;;;;;5.80;5.20;;;21.50;86.20;;;;;;6169065;28;20195;-69
2023/08/27 06:23:46;;;;;;;6.30;5.43;;;21.70;84.40;;;;;;6162028;28;20216;-68
2023/08/27 06:26:47;;;;;;;5.70;5.10;;;;;;;;;;6159985;28;20193;-69
2023/08/27 06:29:48;;;;;;;5.57;5.00;;;;;;;;;;6160102;28;20200;-69
2023/08/27 06:32:49;;;;;;;5.17;4.67;;;;;;;;;;6157377;28;20200;-66
2023/08/27 06:35:50;;;;;;;5.17;4.73;;;;;;;;;;6153262;28;20208;-66
2023/08/27 06:38:51;;;;;;;6.00;5.37;;;;;;;;;;6169784;28;20204;-66
2023/08/27 06:41:52;;;;;;;5.33;4.90;;;;;;;;;;6168975;28;20198;-66
2023/08/27 06:44:54;;;;;;;6.50;5.20;;;;;;;;;;6164394;28;20188;-66
2023/08/27 06:47:55;;;;;;;6.90;5.30;;;;;;;;;;6159262;28;20211;-68
2023/08/27 06:50:56;;;;;;;6.67;5.37;;;;;;;;;;6172231;28;20204;-67
2023/08/27 06:53:57;;;;;;;5.53;5.03;;;;;;;;;;6161518;28;20200;-70
2023/08/27 06:56:59;;;;;;;6.03;5.43;;;;;;;;;;6157635;28;20216;-70
2023/08/27 07:00:00;;;;;;;6.63;5.23;;;;;;;;;;6175244;28;20220;-68
2023/08/27 07:03:02;;;;;;;5.33;4.77;;;;;;;;;;6173269;28;20189;-70
2023/08/27 07:06:05;;;;;;;6.70;4.73;;;21.70;84.60;;;;;;6175844;28;20242;-72
2023/08/27 07:09:06;;;;;;;6.10;5.53;;;22.50;80.50;;;;;;6173474;28;20208;-71
2023/08/27 07:12:06;;;;;;;7.10;4.97;;;22.60;80.00;;;;;;6159347;28;20216;-70
2023/08/27 07:15:07;;;;;;;6.20;4.47;;;22.60;78.50;;;;;;6166296;28;20283;-70
2023/08/27 07:18:08;;;;;;;4.50;4.20;;;22.70;79.10;;;;;;6163456;28;20209;-69
2023/08/27 07:21:08;;;;;;;5.83;4.80;;;22.70;78.20;;;;;;6149427;28;20217;-70
2023/08/27 07:24:09;;;;;;;5.17;4.67;;;22.70;79.10;;;;;;6135200;28;20251;-70
2023/08/27 07:27:10;;;;;;;5.33;4.00;;;22.70;78.60;;;;;;6157814;28;20303;-71
2023/08/27 07:30:11;;;;;;;5.47;4.33;;;22.70;78.50;;;;;;6160747;28;20267;-71
2023/08/27 07:33:13;;;;;;;4.80;4.50;;;22.70;78.40;;;;;;6161790;28;20289;-69
2023/08/27 07:36:13;;;;;;;4.70;3.93;;;22.80;78.00;;;;;;6157292;28;20216;-70
2023/08/27 07:39:18;;;;;;;5.07;3.90;;;22.90;78.00;;;;;;6162395;28;20188;-70
2023/08/27 07:42:21;;;;;;;4.40;3.80;;;23.10;77.10;;;;;;6165860;28;20189;-69
2023/08/27 07:45:22;;;;;;;5.40;4.20;;;23.10;76.50;;;;;;6168306;28;20188;-70
2023/08/27 07:48:22;;;;;;;4.70;4.30;;;23.20;76.00;;;;;;6167762;28;20747;-70
2023/08/27 07:51:24;;;;;;;5.13;3.83;;;23.30;74.70;;;;;;6158068;28;20185;-71
2023/08/27 07:54:24;;;;;;;4.17;3.77;;;23.30;76.40;;;;;;6160691;28;20189;-70
2023/08/27 07:57:25;;;;;;;3.93;3.63;;;23.20;75.50;;;;;;6132960;28;20220;-71
2023/08/27 08:00:26;;;;;;;4.50;4.10;;;23.10;75.30;;;;;;6151340;28;20196;-72
2023/08/27 08:03:26;;;;;;;4.30;4.00;;;23.10;73.70;;;;;;6157704;28;20192;-71
2023/08/27 08:06:27;;;;;;;4.60;4.20;;;23.10;74.60;;;;;;6159114;28;20240;-73
2023/08/27 08:09:27;;;;;;;4.67;4.27;;;23.00;74.80;;;;;;6160976;28;20258;-74
2023/08/27 08:12:28;;;;;;;6.20;4.67;;;22.90;75.60;;;;;;6159522;28;20192;-71
2023/08/27 08:15:29;;;;;;;4.87;4.37;;;22.90;76.40;;;;;;6146183;28;20224;-71
2023/08/27 08:18:30;;;;;;;4.70;4.30;;;22.80;75.80;;;;;;6172988;28;20242;-72
2023/08/27 08:21:30;;;;;;;4.70;4.27;;;22.80;76.50;;;;;;6168916;28;20251;-71
2023/08/27 08:24:31;;;;;;;7.80;4.40;;;22.80;76.90;;;;;;6156999;28;20198;-70
2023/08/27 08:27:32;;;;;;;5.00;4.60;;;22.80;76.00;;;;;;6162306;28;20244;-70
2023/08/27 08:30:33;;;;;;;5.93;5.10;;;22.90;75.30;;;;;;6156428;28;20328;-70
2023/08/27 08:33:34;;;;;;;5.27;4.87;;;23.00;75.30;;;;;;6159231;28;20194;-69
2023/08/27 08:36:34;;;;;;;5.30;4.80;;;23.00;75.70;;;;;;6161636;28;20219;-70
2023/08/27 08:39:35;;;;;;;7.33;5.83;;;23.00;75.90;;;;;;6146315;28;20192;-69
2023/08/27 08:42:48;;;;;;;6.77;6.17;;;23.00;74.50;;;;;;6166698;28;20212;-69
2023/08/27 08:46:09;;;;;;;8.23;6.97;;;23.10;72.90;;;;;;6178695;28;20195;-70
2023/08/27 08:49:17;;;;;;;7.10;6.50;;;23.20;71.80;;;;;;6162057;28;20276;-70
2023/08/27 08:52:20;;;;;;;7.33;6.73;;;23.20;71.80;;;;;;6178824;28;20193;-70
2023/08/27 08:55:24;;;;;;;7.50;6.90;;;23.20;72.00;;;;;;6178332;28;20838;-70
2023/08/27 08:58:29;;;;;;;7.83;7.03;;;23.30;72.20;;;;;;6172501;28;20275;-70
2023/08/27 09:01:31;;;;;;;8.07;7.27;;;23.30;71.50;;;;;;6178308;28;20181;-70
2023/08/27 09:04:34;;;;;;;8.63;7.93;;;23.50;72.00;;;;;;6151652;28;20189;-70
2023/08/27 09:07:37;;;;;;;8.70;7.33;;;23.60;72.60;;;;;;6149862;28;20244;-70
2023/08/27 09:10:38;;;;;;;8.17;7.47;;;23.80;71.20;;;;;;6168664;28;20203;-70
2023/08/27 09:13:39;;;;;;;7.27;6.57;;;24.00;70.90;;;;;;6138645;28;20281;-71
2023/08/27 09:16:39;;;;;;;8.00;7.30;;;14.90;71.40;;;;;;6161431;28;20224;-70
2023/08/27 09:19:40;;;;;;;8.43;7.63;;;24.50;70.70;;;;;;6163067;28;20250;-70
2023/08/27 09:22:43;;;;;;;9.03;8.27;;;;;;;;;;6162554;28;20192;-70
2023/08/27 09:25:44;;;;;;;8.13;7.43;;;24.60;69.80;;;;;;6171989;28;20185;-70
2023/08/27 09:28:45;;;;;;;9.37;7.47;;;24.50;68.60;;;;;;6175588;28;20234;-69
2023/08/27 09:31:46;;;;;;;8.60;7.90;;;24.60;66.80;;;;;;6147941;28;20205;-70
2023/08/27 09:34:47;;;;;;;9.47;8.63;;;24.60;68.50;;;;;;6161177;28;20199;-70
2023/08/27 09:37:47;;;;;;;9.27;8.37;;;24.50;69.90;;;;;;6161728;28;20273;-70
2023/08/27 09:40:48;;;;;;;9.63;8.77;;;24.50;69.60;;;;;;6161374;28;20188;-70
2023/08/27 09:43:53;;;;;;;8.97;8.17;;;24.50;70.20;;;;;;6169513;28;20193;-69
2023/08/27 09:47:04;;;;;;;9.40;8.50;;;24.60;70.50;;;;;;6171104;28;20196;-70
2023/08/27 09:50:07;;;;;;;8.47;7.37;;;24.60;70.60;;;;;;6173965;28;20195;-70
2023/08/27 09:53:12;;;;;;;8.43;7.67;;;24.60;71.10;;;;;;6163980;28;20199;-70
2023/08/27 09:56:12;;;;;;;8.83;8.10;;;24.60;71.20;;;;;;6161206;28;20219;-69
2023/08/27 09:59:18;;;;;;;8.80;8.10;;;24.60;70.70;;;;;;6161101;28;20276;-70
2023/08/27 10:02:19;;;;;;;9.03;8.30;;;24.70;69.80;;;;;;6157474;28;20195;-70
2023/08/27 10:05:33;;;;;;;9.20;8.50;;;24.70;71.00;;;;;;6164164;28;20214;-70
2023/08/27 10:08:45;;;;;;;9.90;9.10;;;24.70;70.80;;;;;;6171897;28;20299;-70
2023/08/27 10:11:46;;;;;;;9.60;8.80;;;24.80;70.00;;;;;;6176412;28;20197;-70
2023/08/27 10:14:48;;;;;;;10.37;9.50;;;;;;;;;;6157474;28;20201;-69
2023/08/27 10:17:51;;;;;;;9.50;8.70;;;24.80;70.60;;;;;;6179256;28;20220;-69
2023/08/27 10:20:54;;;;;;;9.77;8.97;;;25.00;70.20;;;;;;6170809;28;20219;-70
2023/08/27 10:23:56;;;;;;;10.83;9.83;;;25.10;70.40;;;;;;6156946;28;20198;-69
2023/08/27 10:26:58;;;;;;;10.43;9.53;;;25.20;70.50;;;;;;6159831;28;20468;-70
2023/08/27 10:30:00;;;;;;;10.33;9.40;;;25.20;70.80;;;;;;6176271;28;20200;-70
2023/08/27 10:33:02;;;;;;;10.93;9.80;;;25.30;69.70;;;;;;6175342;28;20193;-70
2023/08/27 10:36:08;;;;;;;10.00;9.20;;;;;;;;;;6167650;28;20203;-70
2023/08/27 10:39:09;;;;;;;10.17;9.33;;;25.50;66.50;;;;;;6167454;28;20197;-71
2023/08/27 10:42:30;;;;;;;9.80;8.83;;;25.50;68.50;;;;;;6164062;28;20187;-70
2023/08/27 10:45:36;;;;;;;9.97;9.00;;;25.60;66.90;;;;;;6164182;28;20224;-70
2023/08/27 10:48:38;;;;;;;9.93;9.13;;;25.50;68.50;;;;;;6169608;28;20195;-69
2023/08/27 10:51:40;;;;;;;10.50;9.10;;;;;;;;;;6162733;28;20200;-69
2023/08/27 10:54:41;;;;;;;8.60;7.90;;;;;;;;;;6146266;28;20224;-71
2023/08/27 10:57:42;;;;;;;9.60;8.80;;;;;;;;;;6159769;28;20212;-70
2023/08/27 11:01:02;;;;;;;10.20;9.30;;;;;;;;;;6164209;28;20197;-70
2023/08/27 11:04:07;;;;;;;9.50;8.70;;;25.70;67.70;;;;;;6175306;28;20200;-70
2023/08/27 11:07:14;;;;;;;10.10;9.20;;;;;;;;;;6135886;29;20248;-70
2023/08/27 11:10:17;;;;;;;10.07;9.20;;;;;;;;;;6172816;28;20207;-70
2023/08/27 11:13:34;;;;;;;9.97;9.07;;;26.40;65.00;;;;;;6172171;28;20192;-70
2023/08/27 11:16:45;;;;;;;9.47;8.77;;;;;;;;;;6161496;28;20216;-70
2023/08/27 11:19:46;;;;;;;10.07;9.20;;;26.60;65.70;;;;;;6159304;28;20207;-70
2023/08/27 11:23:08;;;;;;;10.27;9.43;;;26.60;66.80;;;;;;6163533;28;20240;-71
2023/08/27 11:26:08;;;;;;;10.73;9.83;;;26.70;68.00;;;;;;6175013;28;20185;-71
2023/08/27 11:29:10;;;;;;;9.03;8.30;;;26.90;68.40;;;;;;6144646;28;20223;-71
2023/08/27 11:32:12;;;;;;;8.93;8.23;;;27.00;67.80;;;;;;6165051;28;20292;-71
2023/08/27 11:35:14;;;;;;;10.30;9.40;;;27.10;67.10;;;;;;6171135;28;20243;-72
2023/08/27 11:38:14;;;;;;;8.83;8.13;;;27.30;66.80;;;;;;6156013;28;20251;-71
2023/08/27 11:41:15;;;;;;;9.90;9.07;;;27.40;66.90;;;;;;6155166;28;20189;-71
2023/08/27 11:44:17;;;;;;;10.60;9.60;;;27.50;65.30;;;;;;6158239;28;20188;-71
2023/08/27 11:47:19;;;;;;;9.13;8.40;;;27.60;65.30;;;;;;6158929;28;20200;-71
2023/08/27 11:50:21;;;;;;;10.50;9.70;;;27.80;65.20;;;;;;6161052;28;20196;-71
2023/08/27 11:53:23;;;;;;;9.63;8.93;;;;;;;;;;6187103;28;20243;-71
2023/08/27 11:56:26;;;;;;;10.67;9.77;;;;;;;;;;6157489;28;20226;-70
2023/08/27 11:59:27;;;;;;;9.77;8.97;;;;;;;;;;6187150;28;20192;-71
2023/08/27 12:02:28;;;;;;;11.37;10.27;;;;;;;;;;6173934;28;20199;-70
2023/08/27 12:05:31;;;;;;;10.67;9.77;;;;;;;;;;6140414;28;20283;-70
2023/08/27 12:08:35;;;;;;;9.47;8.60;;;;;;;;;;6154863;28;20255;-70
2023/08/27 12:11:36;;;;;;;9.37;8.57;;;;;;;;;;6156638;28;20204;-70
2023/08/27 12:14:37;;;;;;;8.57;7.87;;;;;;;;;;6158711;28;20242;-70
2023/08/27 12:17:38;;;;;;;8.27;7.53;;;;;;;;;;6155467;28;20225;-70
2023/08/27 12:20:39;;;;;;;7.67;7.17;;;;;;;;;;6164957;28;20213;-70
2023/08/27 12:23:50;;;;;;;7.65;7.05;;;37.50;47.20;;;;;;6156926;28;20254;-70
2023/08/27 12:26:51;;;;;;;7.78;7.18;;;;;;;;;;6160543;28;20196;-70
2023/08/27 12:29:53;;;;;;;7.43;6.82;;;40.00;42.30;;;;;;6157740;28;20211;-69
2023/08/27 12:32:54;;;;;;;6.85;6.35;;;;;;;;;;6151428;28;20244;-70
2023/08/27 12:35:55;;;;;;;7.13;6.63;;;42.00;38.90;;;;;;6174060;28;20193;-70
2023/08/27 12:38:56;;;;;;;7.05;6.45;;;;;;;;;;6159928;28;20252;-69
2023/08/27 12:41:57;;;;;;;7.10;6.60;;;42.80;37.40;;;;;;6156975;28;20193;-70
2023/08/27 12:44:58;;;;;;;7.07;6.47;;;42.60;38.50;;;;;;6164014;28;20292;-71
2023/08/27 12:48:05;;;;;;;6.13;5.72;;;42.30;37.50;;;;;;6141313;28;20196;-71
2023/08/27 12:51:06;;;;;;;6.50;6.07;;;42.50;37.90;;;;;;6160049;28;20219;-71
2023/08/27 12:54:06;;;;;;;7.07;6.47;;;43.10;37.80;;;;;;6162310;28;20191;-70
2023/08/27 12:57:07;;;;;;;6.80;6.30;;;43.80;36.20;;;;;;6162468;28;20227;-70
2023/08/27 13:00:08;;;;;;;6.47;5.97;;;44.20;35.70;;;;;;6161676;28;20188;-71
2023/08/27 13:03:09;;;;;;;6.10;5.70;;;44.20;35.40;;;;;;6177869;28;20223;-70
2023/08/27 13:06:11;;;;;;;6.97;6.47;;;;;;;;;;6160831;28;20194;-70
2023/08/27 13:09:15;;;;;;;6.57;6.00;;;45.30;35.60;;;;;;6178161;28;20193;-70
2023/08/27 13:12:16;;;;;;;6.75;6.22;;;45.10;34.70;;;;;;6172530;28;20185;-70
2023/08/27 13:15:17;;;;;;;7.20;6.50;;;;;;;;;;6159877;28;20192;-70
2023/08/27 13:18:21;;;;;;;6.38;5.90;;;;;;;;;;6177953;28;20270;-69
2023/08/27 13:21:22;;;;;;;6.80;6.30;;;;;;;;;;6179716;28;20216;-68
2023/08/27 13:24:24;;;;;;;6.43;6.03;;;;;;;;;;6168201;28;20191;-69
2023/08/27 13:27:25;;;;;;;6.80;6.20;;;;;;;;;;6159698;28;20196;-69
2023/08/27 13:30:27;;;;;;;7.32;6.63;;;;;;;;;;6159443;28;20260;-68
2023/08/27 13:33:28;;;;;;;6.35;5.95;;;;;;;;;;6170607;28;20208;-68
2023/08/27 13:36:33;;;;;;;7.22;6.57;;;;;;;;;;6177007;28;20255;-68
2023/08/27 13:39:35;;;;;;;6.20;5.70;;;;;;;;;;6174747;28;20185;-68
2023/08/27 13:42:36;;;;;;;6.80;6.30;;;;;;;;;;6175950;28;20192;-69
2023/08/27 13:45:37;;;;;;;6.75;5.88;;;;;;;;;;6161063;28;20235;-68
2023/08/27 13:48:39;;;;;;;7.28;6.38;;;;;;;;;;6181806;28;20253;-68
2023/08/27 13:51:40;;;;;;;6.90;6.40;;;;;;;;;;6177295;28;20220;-68
2023/08/27 13:54:42;;;;;;;7.22;6.35;;;;;;;;;;6160953;28;20223;-69
2023/08/27 13:57:43;;;;;;;7.15;6.60;;;45.10;35.20;;;;;;6175646;28;20250;-68
2023/08/27 14:00:45;;;;;;;6.95;6.35;;;;;;;;;;6160476;28;20185;-68
2023/08/27 14:03:46;;;;;;;7.47;6.88;;;;;;;;;;6159415;28;20200;-67
2023/08/27 14:06:48;;;;;;;7.57;6.97;;;;;;;;;;6165119;28;20224;-68
2023/08/27 14:09:49;;;;;;;8.35;7.50;;;;;;;;;;6176143;28;20219;-68
2023/08/27 14:12:50;;;;;;;7.65;6.93;;;;;;;;;;6171455;28;20279;-69
2023/08/27 14:15:52;;;;;;;7.90;7.20;;;;;;;;;;6170508;28;20220;-69
2023/08/27 14:18:54;;;;;;;7.68;6.95;;;;;;;;;;6175962;28;20304;-69
2023/08/27 14:21:56;;;;;;;7.32;6.72;;;;;;;;;;6165048;28;20189;-69
2023/08/27 14:24:57;;;;;;;7.90;7.20;;;;;;;;;;6174747;28;20192;-69
2023/08/27 14:27:58;;;;;;;8.65;7.95;;;;;;;;;;6161706;28;20472;-68
2023/08/27 14:31:00;;;;;;;8.50;7.70;;;;;;;;;;6187726;28;20192;-69
2023/08/27 14:34:05;;;;;;;8.40;7.63;;;;;;;;;;6175204;28;20212;-69
2023/08/27 14:37:07;;;;;;;9.07;8.27;;;;;;;;;;6162543;28;20217;-69
2023/08/27 14:40:09;;;;;;;8.63;8.03;;;;;;;;;;6179688;28;20179;-69
2023/08/27 14:43:11;;;;;;;9.20;8.40;;;;;;;;;;6169624;28;20189;-70
2023/08/27 14:46:13;;;;;;;9.10;8.30;;;;;;;;;;6176402;28;20185;-69
2023/08/27 14:49:14;;;;;;;9.07;8.37;;;;;;;;;;6161668;28;20207;-68
2023/08/27 14:52:15;;;;;;;8.97;8.17;;;36.70;46.40;;;;;;6176339;28;20202;-68
2023/08/27 14:55:16;;;;;;;9.80;8.93;;;36.00;47.80;;;;;;6175683;28;20205;-67
2023/08/27 14:58:17;;;;;;;10.30;9.60;;;35.50;50.20;;;;;;6185667;28;20298;-68
2023/08/27 15:01:18;;;;;;;8.97;8.07;;;35.40;51.20;;;;;;6159446;28;20192;-67
2023/08/27 15:04:19;;;;;;;9.23;8.50;;;35.30;51.20;;;;;;6176790;28;20184;-68
2023/08/27 15:07:21;;;;;;;9.60;8.80;;;35.30;51.90;;;;;;6157650;28;20282;-68
2023/08/27 15:10:22;;;;;;;10.67;9.33;;;35.20;51.60;;;;;;6160844;28;20268;-68
2023/08/27 15:13:23;;;;;;;23.00;14.67;;;34.90;51.90;;;;;;6142646;28;20196;-68
2023/08/27 15:16:24;;;;;;;13.20;11.17;;;34.50;52.30;;;;;;6159305;28;20219;-68
2023/08/27 15:19:26;;;;;;;12.30;11.10;;;34.00;52.60;;;;;;6159635;28;20192;-67
2023/08/27 15:22:26;;;;;;;12.83;10.80;;;33.60;53.80;;;;;;6156743;28;20199;-67
2023/08/27 15:25:27;;;;;;;12.50;11.20;;;33.00;55.80;;;;;;6147471;28;20188;-68
2023/08/27 15:28:29;;;;;;;13.07;11.90;;;32.50;57.00;;;;;;6161074;28;20246;-67
2023/08/27 15:31:31;;;;;;;11.83;10.73;;;32.00;57.20;;;;;;6159634;28;20200;-67
2023/08/27 15:34:35;;;;;;;12.23;11.00;;;31.80;58.20;;;;;;6175877;28;20198;-68
2023/08/27 15:37:36;;;;;;;11.93;10.77;;;31.40;58.50;;;;;;6159973;28;20212;-69
2023/08/27 15:40:38;;;;;;;11.90;10.80;;;31.00;59.50;;;;;;6159607;28;20193;-68
2023/08/27 15:43:43;;;;;;;11.00;10.10;;;30.80;59.80;;;;;;6160258;28;20244;-68
2023/08/27 15:46:44;;;;;;;11.57;10.67;;;30.60;61.20;;;;;;6175835;28;20192;-66
2023/08/27 15:49:45;;;;;;;11.87;10.27;;;30.50;61.80;;;;;;6168152;28;20196;-68
2023/08/27 15:52:46;;;;;;;11.03;10.13;;;30.30;62.10;;;;;;6175536;28;20204;-72
2023/08/27 15:55:48;;;;;;;12.97;11.40;;;30.30;63.00;;;;;;6143229;28;20184;-69
2023/08/27 15:58:49;;;;;;;11.60;10.60;;;30.10;63.30;;;;;;6161732;28;20228;-70
2023/08/27 16:01:50;;;;;;;11.93;10.93;;;30.00;63.40;;;;;;6174494;28;20207;-70
2023/08/27 16:04:51;;;;;;;12.17;11.27;;;29.80;63.80;;;;;;6143074;28;20196;-68
2023/08/27 16:07:52;;;;;;;13.07;11.87;;;29.70;64.40;;;;;;6141000;28;20256;-69